createdAt,value
2023-03-21T00:00:43.766Z,2.03
2023-03-21T00:03:11.575Z,2.70
2023-03-21T00:05:42.764Z,2.28
2023-03-21T00:10:43.483Z,2.10
2023-03-21T00:13:16.153Z,2.22
2023-03-21T00:16:08.631Z,2.00
2023-03-21T00:18:42.608Z,2.30
2023-03-21T00:24:00.274Z,2.40
2023-03-21T00:26:27.896Z,2.05
2023-03-21T00:28:55.539Z,2.42
2023-03-21T00:31:23.221Z,2.10
2023-03-21T00:33:51.457Z,2.00
2023-03-21T00:36:19.273Z,2.53
2023-03-21T00:38:46.927Z,2.42
2023-03-21T00:41:25.810Z,2.05
2023-03-21T00:44:04.095Z,2.20
2023-03-21T00:46:43.696Z,2.10
2023-03-21T00:49:14.871Z,2.28
2023-03-21T00:51:43.789Z,1.88
2023-03-21T00:54:12.892Z,2.53
2023-03-21T00:56:41.888Z,2.50
2023-03-21T00:59:10.876Z,3.08
2023-03-21T01:01:38.604Z,2.60
2023-03-21T01:04:13.462Z,2.72
2023-03-21T01:06:42.493Z,3.63
2023-03-21T01:09:14.684Z,2.50
2023-03-21T01:11:42.387Z,2.70
2023-03-21T01:14:21.893Z,2.22
2023-03-21T01:16:51.846Z,2.30
2023-03-21T01:19:40.620Z,2.40
2023-03-21T01:22:08.781Z,2.70
2023-03-21T01:24:40.492Z,2.28
2023-03-21T01:27:14.428Z,2.47
2023-03-21T01:29:42.194Z,2.33
2023-03-21T01:32:09.995Z,2.55
2023-03-21T01:34:37.569Z,2.30
2023-03-21T01:37:05.259Z,2.28
2023-03-21T01:39:39.800Z,2.53
2023-03-21T01:42:07.494Z,2.20
2023-03-21T01:44:52.555Z,2.63
2023-03-21T01:47:21.433Z,2.00
2023-03-21T01:50:05.105Z,2.30
2023-03-21T01:52:58.713Z,1.98
2023-03-21T01:55:32.393Z,2.80
2023-03-21T01:58:11.293Z,2.30
2023-03-21T02:00:51.684Z,2.45
2023-03-21T02:03:54.065Z,2.38
2023-03-21T02:06:53.237Z,2.60
2023-03-21T02:09:48.281Z,2.88
2023-03-21T02:12:19.964Z,2.13
2023-03-21T02:14:49.703Z,2.53
2023-03-21T02:17:24.862Z,2.15
2023-03-21T02:20:13.642Z,2.03
2023-03-21T02:22:56.801Z,2.25
2023-03-21T02:25:52.177Z,2.17
2023-03-21T02:28:29.013Z,2.45
2023-03-21T02:31:05.567Z,1.98
2023-03-21T02:33:43.225Z,1.98
2023-03-21T02:36:14.221Z,2.10
2023-03-21T02:38:52.071Z,1.70
2023-03-21T02:41:25.438Z,2.30
2023-03-21T02:43:57.350Z,1.90
2023-03-21T02:46:44.160Z,2.47
2023-03-21T02:49:23.850Z,2.10
2023-03-21T02:51:51.960Z,2.10
2023-03-21T02:54:35.085Z,2.00
2023-03-21T02:57:09.824Z,1.92
2023-03-21T02:59:44.544Z,2.92
2023-03-21T03:02:23.112Z,2.38
2023-03-21T03:04:50.761Z,1.77
2023-03-21T03:07:18.378Z,2.17
2023-03-21T03:09:57.396Z,2.33
2023-03-21T03:12:32.719Z,2.80
2023-03-21T03:15:03.830Z,2.35
2023-03-21T03:17:48.309Z,2.30
2023-03-21T03:20:21.903Z,2.08
2023-03-21T03:22:52.633Z,2.17
2023-03-21T03:25:35.992Z,2.05
2023-03-21T03:28:09.946Z,2.17
2023-03-21T03:30:45.041Z,2.22
2023-03-21T03:33:17.901Z,2.40
2023-03-21T03:35:53.060Z,2.40
2023-03-21T03:38:31.732Z,2.30
2023-03-21T03:41:00.089Z,2.55
2023-03-21T03:43:44.621Z,2.78
2023-03-21T03:46:15.372Z,2.40
2023-03-21T03:48:50.572Z,2.58
2023-03-21T03:51:23.703Z,3.10
2023-03-21T03:54:18.665Z,2.25
2023-03-21T03:56:46.937Z,2.85
2023-03-21T03:59:19.546Z,2.80
2023-03-21T04:01:57.118Z,3.22
2023-03-21T04:04:28.749Z,4.25
2023-03-21T04:06:58.219Z,3.90
2023-03-21T04:09:41.188Z,3.67
2023-03-21T04:12:10.751Z,3.95
2023-03-21T04:14:45.618Z,3.75
2023-03-21T04:17:16.567Z,3.83
2023-03-21T04:19:45.362Z,4.20
2023-03-21T04:22:13.476Z,3.72
2023-03-21T04:24:44.845Z,3.92
2023-03-21T04:27:14.064Z,4.78
2023-03-21T04:29:43.692Z,4.57
2023-03-21T04:32:39.749Z,4.13
2023-03-21T04:35:15.452Z,4.25
2023-03-21T04:37:43.513Z,4.35
2023-03-21T04:42:46.408Z,3.50
2023-03-21T04:45:15.533Z,4.00
2023-03-21T04:47:45.725Z,3.38
2023-03-21T04:50:13.793Z,4.22
2023-03-21T04:52:41.461Z,3.55
2023-03-21T04:55:10.125Z,4.35
2023-03-21T04:57:39.357Z,4.13
2023-03-21T05:00:10.622Z,3.88
2023-03-21T05:02:39.615Z,3.75
2023-03-21T05:05:11.173Z,4.03
2023-03-21T05:07:39.842Z,3.60
2023-03-21T05:10:08.235Z,4.35
2023-03-21T05:12:36.475Z,4.15
2023-03-21T05:15:05.486Z,4.53
2023-03-21T05:17:33.024Z,4.75
2023-03-21T05:20:00.614Z,3.85
2023-03-21T05:22:29.017Z,3.83
2023-03-21T05:24:57.592Z,4.00
2023-03-21T05:27:45.368Z,4.18
2023-03-21T05:30:17.124Z,3.95
2023-03-21T05:32:46.232Z,4.00
2023-03-21T05:35:14.752Z,8.05
2023-03-21T05:37:42.848Z,4.50
2023-03-21T05:40:11.524Z,4.20
2023-03-21T05:42:43.421Z,4.82
2023-03-21T05:45:21.546Z,5.05
2023-03-21T05:47:50.961Z,3.97
2023-03-21T05:50:19.911Z,4.57
2023-03-21T05:52:56.921Z,4.65
2023-03-21T05:55:24.714Z,4.60
2023-03-21T05:57:52.358Z,4.75
2023-03-21T06:00:26.239Z,6.05
2023-03-21T06:03:11.878Z,5.40
2023-03-21T06:05:58.770Z,6.22
2023-03-21T06:08:33.614Z,6.03
2023-03-21T06:11:01.727Z,5.80
2023-03-21T06:13:32.894Z,5.13
2023-03-21T06:16:01.838Z,5.37
2023-03-21T06:18:29.993Z,5.75
2023-03-21T06:21:14.403Z,5.40
2023-03-21T06:23:42.568Z,6.03
2023-03-21T06:26:12.211Z,5.10
2023-03-21T06:28:40.342Z,4.95
2023-03-21T06:31:41.844Z,5.82
2023-03-21T06:34:11.773Z,4.75
2023-03-21T06:36:39.527Z,4.78
2023-03-21T06:39:10.654Z,4.55
2023-03-21T06:41:41.294Z,4.65
2023-03-21T06:44:12.656Z,4.93
2023-03-21T06:46:49.636Z,4.53
2023-03-21T06:49:20.550Z,5.18
2023-03-21T06:51:48.279Z,4.50
2023-03-21T06:54:22.537Z,4.03
2023-03-21T06:57:13.969Z,4.50
2023-03-21T06:59:42.349Z,4.78
2023-03-21T07:02:14.633Z,4.15
2023-03-21T07:05:11.071Z,3.78
2023-03-21T07:07:39.206Z,4.67
2023-03-21T07:10:07.606Z,4.22
2023-03-21T07:12:43.941Z,4.00
2023-03-21T07:15:19.926Z,3.90
2023-03-21T07:17:47.871Z,3.90
2023-03-21T07:20:15.571Z,3.95
2023-03-21T07:22:43.311Z,4.25
2023-03-21T07:25:11.391Z,4.22
2023-03-21T07:27:41.401Z,3.63
2023-03-21T07:30:10.253Z,3.55
2023-03-21T07:32:40.372Z,3.42
2023-03-21T07:35:09.312Z,3.53
2023-03-21T07:37:38.221Z,3.50
2023-03-21T07:40:10.653Z,3.05
2023-03-21T07:42:43.020Z,3.38
2023-03-21T07:45:19.824Z,3.10
2023-03-21T07:47:49.304Z,3.83
2023-03-21T07:50:17.100Z,3.85
2023-03-21T07:52:45.547Z,3.25
2023-03-21T07:55:13.392Z,3.30
2023-03-21T07:57:41.078Z,3.42
2023-03-21T08:00:09.143Z,4.10
2023-03-21T08:02:43.544Z,3.63
2023-03-21T08:05:11.531Z,3.65
2023-03-21T08:07:39.151Z,3.70
2023-03-21T08:10:07.166Z,3.70
2023-03-21T08:12:34.797Z,4.15
2023-03-21T08:15:02.494Z,3.55
2023-03-21T08:17:30.277Z,3.33
2023-03-21T08:19:57.931Z,2.88
2023-03-21T08:22:25.695Z,2.55
2023-03-21T08:24:53.414Z,2.40
2023-03-21T08:27:21.032Z,2.85
2023-03-21T08:29:48.765Z,2.55
2023-03-21T08:32:19.313Z,2.55
2023-03-21T08:34:47.057Z,3.15
2023-03-21T08:37:14.833Z,2.97
2023-03-21T08:39:42.762Z,2.63
2023-03-21T08:42:10.474Z,2.78
2023-03-21T08:44:39.792Z,2.88
2023-03-21T08:47:08.226Z,2.53
2023-03-21T08:49:36.239Z,2.10
2023-03-21T08:52:04.078Z,2.95
2023-03-21T08:54:31.848Z,2.60
2023-03-21T08:56:59.607Z,2.47
2023-03-21T08:59:27.288Z,2.15
2023-03-21T09:01:55.070Z,1.98
2023-03-21T09:04:25.936Z,2.33
2023-03-21T09:06:56.314Z,2.05
2023-03-21T09:09:24.391Z,3.05
2023-03-21T09:11:52.617Z,2.45
2023-03-21T09:14:21.874Z,2.28
2023-03-21T09:16:52.091Z,2.00
2023-03-21T09:19:19.784Z,2.13
2023-03-21T09:21:47.840Z,2.22
2023-03-21T09:24:15.574Z,2.00
2023-03-21T09:26:44.041Z,2.03
2023-03-21T09:29:11.914Z,1.98
2023-03-21T09:31:40.332Z,2.60
2023-03-21T09:34:08.320Z,2.20
2023-03-21T09:36:36.344Z,1.55
2023-03-21T09:39:04.360Z,1.90
2023-03-21T09:41:37.645Z,1.63
2023-03-21T09:44:25.643Z,1.73
2023-03-21T09:46:59.136Z,1.30
2023-03-21T09:49:32.981Z,2.97
2023-03-21T09:52:05.616Z,2.05
2023-03-21T09:54:38.321Z,2.50
2023-03-21T09:57:15.057Z,2.15
2023-03-21T09:59:43.609Z,2.17
2023-03-21T10:02:21.820Z,1.70
2023-03-21T10:04:50.110Z,2.03
2023-03-21T10:07:19.989Z,1.92
2023-03-21T10:09:49.315Z,1.88
2023-03-21T10:12:20.963Z,1.83
2023-03-21T10:14:52.998Z,2.10
2023-03-21T10:17:21.557Z,2.28
2023-03-21T10:19:52.259Z,2.00
2023-03-21T10:22:20.191Z,1.88
2023-03-21T10:24:47.935Z,1.92
2023-03-21T10:27:15.773Z,2.30
2023-03-21T10:29:45.077Z,1.80
2023-03-21T10:32:14.977Z,2.10
2023-03-21T10:34:44.663Z,2.17
2023-03-21T10:37:13.527Z,1.93
2023-03-21T10:39:45.365Z,2.38
2023-03-21T10:42:21.611Z,2.00
2023-03-21T10:44:49.885Z,1.42
2023-03-21T10:47:25.981Z,1.88
2023-03-21T10:50:07.393Z,1.73
2023-03-21T10:52:36.621Z,1.95
2023-03-21T10:55:08.487Z,2.00
2023-03-21T10:57:38.093Z,1.83
2023-03-21T11:00:16.555Z,1.88
2023-03-21T11:02:48.353Z,1.60
2023-03-21T11:05:25.448Z,1.77
2023-03-21T11:08:05.213Z,1.58
2023-03-21T11:10:34.677Z,1.38
2023-03-21T11:13:04.250Z,1.70
2023-03-21T11:15:34.042Z,2.45
2023-03-21T11:18:13.856Z,1.75
2023-03-21T11:20:45.776Z,1.42
2023-03-21T11:23:13.885Z,1.35
2023-03-21T11:25:42.768Z,1.70
2023-03-21T11:28:15.200Z,1.70
2023-03-21T11:30:51.498Z,1.88
2023-03-21T11:33:20.912Z,1.48
2023-03-21T11:36:03.064Z,1.63
2023-03-21T11:38:32.858Z,1.77
2023-03-21T11:41:02.004Z,2.00
2023-03-21T11:43:35.817Z,1.85
2023-03-21T11:46:11.042Z,1.65
2023-03-21T11:48:43.521Z,2.00
2023-03-21T11:51:17.368Z,1.60
2023-03-21T11:53:58.591Z,1.40
2023-03-21T11:56:28.732Z,1.70
2023-03-21T11:59:05.749Z,1.55
2023-03-21T12:01:53.101Z,1.55
2023-03-21T12:04:27.377Z,1.20
2023-03-21T12:07:15.630Z,1.20
2023-03-21T12:10:02.282Z,1.73
2023-03-21T12:12:39.693Z,1.50
2023-03-21T12:15:22.830Z,1.30
2023-03-21T12:18:07.552Z,1.35
2023-03-21T12:20:45.583Z,1.27
2023-03-21T12:23:35.159Z,1.27
2023-03-21T12:26:23.262Z,1.60
2023-03-21T12:29:09.852Z,1.38
2023-03-21T12:31:56.704Z,1.45
2023-03-21T12:34:24.820Z,1.50
2023-03-21T12:37:01.832Z,1.13
2023-03-21T12:39:31.224Z,0.90
2023-03-21T12:41:59.083Z,1.38
2023-03-21T12:44:29.636Z,1.15
2023-03-21T12:47:01.483Z,1.20
2023-03-21T12:49:48.557Z,1.38
2023-03-21T12:52:23.031Z,1.23
2023-03-21T12:55:02.408Z,1.25
2023-03-21T12:57:36.863Z,0.88
2023-03-21T13:00:14.022Z,0.82
2023-03-21T13:02:44.405Z,1.00
2023-03-21T13:05:14.138Z,0.80
2023-03-21T13:07:44.314Z,1.20
2023-03-21T13:10:22.601Z,0.85
2023-03-21T13:13:02.589Z,1.17
2023-03-21T13:15:30.487Z,1.23
2023-03-21T13:18:05.972Z,0.93
2023-03-21T13:20:38.628Z,1.30
2023-03-21T13:23:08.310Z,0.98
2023-03-21T13:25:42.134Z,1.02
2023-03-21T13:28:16.818Z,0.73
2023-03-21T13:30:44.743Z,0.80
2023-03-21T13:33:14.401Z,1.10
2023-03-21T13:35:43.750Z,0.93
2023-03-21T13:38:17.608Z,1.02
2023-03-21T13:41:04.209Z,0.70
2023-03-21T13:43:34.846Z,1.08
2023-03-21T13:46:08.943Z,0.75
2023-03-21T13:48:57.815Z,0.80
2023-03-21T13:51:28.873Z,1.00
2023-03-21T13:54:06.604Z,0.93
2023-03-21T13:56:46.674Z,1.08
2023-03-21T13:59:33.245Z,0.75
2023-03-21T14:02:06.133Z,0.90
2023-03-21T14:04:42.051Z,1.20
2023-03-21T14:07:13.371Z,1.50
2023-03-21T14:09:48.657Z,1.58
2023-03-21T14:12:39.974Z,1.77
2023-03-21T14:15:17.091Z,0.90
2023-03-21T14:17:56.254Z,0.90
2023-03-21T14:20:28.743Z,1.00
2023-03-21T14:22:56.608Z,1.27
2023-03-21T14:25:29.157Z,1.00
2023-03-21T14:28:01.242Z,1.20
2023-03-21T14:30:32.651Z,0.93
2023-03-21T14:33:03.480Z,0.90
2023-03-21T14:35:32.166Z,1.30
2023-03-21T14:38:05.427Z,1.30
2023-03-21T14:40:33.059Z,1.27
2023-03-21T14:43:04.763Z,1.67
2023-03-21T14:45:32.424Z,1.33
2023-03-21T14:48:00.622Z,0.82
2023-03-21T14:50:48.514Z,1.10
2023-03-21T14:53:18.652Z,1.30
2023-03-21T14:55:47.698Z,1.00
2023-03-21T14:58:16.552Z,1.30
2023-03-21T15:00:44.338Z,1.25
2023-03-21T15:03:12.625Z,1.40
2023-03-21T15:05:42.764Z,1.00
2023-03-21T15:08:14.171Z,1.20
2023-03-21T15:10:42.302Z,1.30
2023-03-21T15:13:17.443Z,0.98
2023-03-21T15:15:45.338Z,1.10
2023-03-21T15:18:16.296Z,1.58
2023-03-21T15:20:44.491Z,1.08
2023-03-21T15:23:29.595Z,1.50
2023-03-21T15:25:57.400Z,1.05
2023-03-21T15:28:26.298Z,1.20
2023-03-21T15:30:54.565Z,1.15
2023-03-21T15:33:24.655Z,1.13
2023-03-21T15:35:58.028Z,0.93
2023-03-21T15:38:41.234Z,1.60
2023-03-21T15:41:18.244Z,1.02
2023-03-21T15:43:46.203Z,1.27
2023-03-21T15:46:15.328Z,1.73
2023-03-21T15:48:43.111Z,1.23
2023-03-21T15:51:21.146Z,1.48
2023-03-21T15:53:49.106Z,2.10
2023-03-21T15:56:21.451Z,1.10
2023-03-21T15:58:49.790Z,1.10
2023-03-21T16:01:19.834Z,1.23
2023-03-21T16:03:49.025Z,1.77
2023-03-21T16:06:25.773Z,1.27
2023-03-21T16:09:25.212Z,1.00
2023-03-21T16:12:04.184Z,1.40
2023-03-21T16:14:31.922Z,0.90
2023-03-21T16:16:59.579Z,1.42
2023-03-21T16:19:29.736Z,1.10
2023-03-21T16:21:57.393Z,1.20
2023-03-21T16:24:25.146Z,1.10
2023-03-21T16:26:53.442Z,1.17
2023-03-21T16:29:21.132Z,1.00
2023-03-21T16:31:49.216Z,1.15
2023-03-21T16:34:16.863Z,1.35
2023-03-21T16:36:44.442Z,0.90
2023-03-21T16:39:20.117Z,1.45
2023-03-21T16:41:48.330Z,1.20
2023-03-21T16:44:18.012Z,0.98
2023-03-21T17:06:02.281Z,1.08
2023-03-21T17:11:54.604Z,1.08
2023-03-21T17:14:50.937Z,1.08
2023-03-21T17:20:03.250Z,1.25
2023-03-21T17:25:13.885Z,1.38
2023-03-21T17:30:42.272Z,1.23
2023-03-21T17:36:19.738Z,1.52
2023-03-21T17:39:00.509Z,1.40
2023-03-21T17:47:07.202Z,1.50
2023-03-21T17:49:38.462Z,1.25
2023-03-21T17:55:07.805Z,1.13
2023-03-21T17:57:37.364Z,1.38
2023-03-21T18:00:12.634Z,1.10
2023-03-21T18:08:15.827Z,1.83
2023-03-21T18:22:15.522Z,1.52
2023-03-21T18:30:56.524Z,1.35
2023-03-21T18:33:25.815Z,1.70
2023-03-21T18:41:37.997Z,1.85
2023-03-21T18:47:04.046Z,2.50
2023-03-21T18:50:05.880Z,2.25
2023-03-21T18:52:20.983Z,2.00
2023-03-21T18:54:49.540Z,3.00
2023-03-21T18:57:35.835Z,2.03
2023-03-21T19:00:17.687Z,2.30
2023-03-21T19:02:50.689Z,2.10
2023-03-21T19:05:20.550Z,2.22
2023-03-21T19:07:48.785Z,1.98
2023-03-21T19:10:19.576Z,1.98
2023-03-21T19:12:48.932Z,1.90
2023-03-21T19:15:19.909Z,1.92
2023-03-21T19:20:35.489Z,2.45
2023-03-21T19:23:05.390Z,2.20
2023-03-21T19:25:33.900Z,1.95
2023-03-21T19:28:02.033Z,2.28
2023-03-21T19:30:34.131Z,2.45
2023-03-21T19:33:01.988Z,2.30
2023-03-21T19:35:29.770Z,2.78
2023-03-21T19:37:57.893Z,2.47
2023-03-21T19:40:26.190Z,3.22
2023-03-21T19:42:54.357Z,2.90
2023-03-21T19:45:22.328Z,2.60
2023-03-21T19:47:50.108Z,3.00
2023-03-21T19:53:07.214Z,4.53
2023-03-21T19:55:34.816Z,3.60
2023-03-21T19:58:02.586Z,4.10
2023-03-21T20:00:32.201Z,2.92
2023-03-21T20:03:01.477Z,3.00
2023-03-21T20:05:29.729Z,2.65
2023-03-21T20:07:57.821Z,3.65
2023-03-21T20:10:28.533Z,3.00
2023-03-21T20:12:59.966Z,3.67
2023-03-21T20:15:30.601Z,2.88
2023-03-21T20:17:59.025Z,3.47
2023-03-21T20:20:27.375Z,3.22
2023-03-21T21:09:40.526Z,2.92
2023-03-21T21:12:20.038Z,2.83
2023-03-21T21:21:20.786Z,2.83
2023-03-21T21:26:42.115Z,2.75
2023-03-21T21:43:03.773Z,2.38
2023-03-21T21:45:44.936Z,2.17
2023-03-21T21:51:13.469Z,2.50
2023-03-21T21:53:42.078Z,2.00
2023-03-21T21:56:12.524Z,2.85
2023-03-21T21:58:47.020Z,2.20
2023-03-21T22:04:06.714Z,2.90
2023-03-21T22:06:36.231Z,3.00
2023-03-21T22:09:08.232Z,2.95
2023-03-21T22:11:42.771Z,2.72
2023-03-21T22:14:12.144Z,2.90
2023-03-21T22:16:42.413Z,3.40
2023-03-21T22:19:10.924Z,2.57
2023-03-21T22:21:39.194Z,2.08
2023-03-21T22:24:07.553Z,2.90
2023-03-21T22:26:41.128Z,2.78
2023-03-21T22:29:22.876Z,2.55
2023-03-21T22:34:42.155Z,2.40
2023-03-21T22:37:11.857Z,2.47
2023-03-21T22:42:23.482Z,2.30
2023-03-21T22:53:01.782Z,3.90
2023-03-21T22:55:29.608Z,2.70
2023-03-21T22:57:58.926Z,3.00
2023-03-21T23:00:26.892Z,2.58
2023-03-21T23:02:54.509Z,2.78
2023-03-21T23:05:22.269Z,2.58
2023-03-21T23:07:51.009Z,2.92
2023-03-21T23:10:19.043Z,2.20
2023-03-21T23:12:47.558Z,2.35
2023-03-21T23:15:15.470Z,2.58
2023-03-21T23:17:44.297Z,2.53
2023-03-21T23:20:12.823Z,2.03
2023-03-21T23:22:41.531Z,2.40
2023-03-21T23:25:10.060Z,2.50
2023-03-21T23:27:37.974Z,2.70
2023-03-21T23:30:07.050Z,2.30
2023-03-21T23:32:35.967Z,2.60
2023-03-21T23:35:04.532Z,2.00
2023-03-21T23:37:32.999Z,2.70
2023-03-21T23:40:00.705Z,2.55
2023-03-21T23:42:30.633Z,2.80
2023-03-21T23:44:59.103Z,2.50
2023-03-21T23:47:28.198Z,2.42
2023-03-21T23:49:58.741Z,2.63
2023-03-21T23:52:27.082Z,2.60
2023-03-21T23:54:55.679Z,2.30
2023-03-21T23:57:24.228Z,2.80
2023-03-21T23:59:55.425Z,2.83
